createdAt,value
2017-09-10T00:00:46.342Z,95.50
2017-09-10T00:03:13.950Z,95.50
2017-09-10T00:05:41.607Z,95.50
2017-09-10T00:08:09.200Z,95.60
2017-09-10T00:10:36.824Z,95.70
2017-09-10T00:13:04.449Z,95.90
2017-09-10T00:15:32.079Z,95.80
2017-09-10T00:17:59.676Z,95.70
2017-09-10T00:20:27.271Z,95.60
2017-09-10T00:22:54.882Z,95.50
2017-09-10T00:25:22.493Z,95.50
2017-09-10T00:27:50.091Z,95.90
2017-09-10T00:30:17.689Z,96.00
2017-09-10T00:32:45.316Z,96.10
2017-09-10T00:35:12.911Z,96.00
2017-09-10T00:37:40.507Z,96.00
2017-09-10T00:40:08.159Z,96.00
2017-09-10T00:42:35.778Z,96.10
2017-09-10T00:45:03.395Z,96.20
2017-09-10T00:47:31.033Z,96.00
2017-09-10T00:49:58.686Z,96.00
2017-09-10T00:52:26.298Z,96.00
2017-09-10T00:54:53.928Z,96.10
2017-09-10T00:57:21.566Z,96.10
2017-09-10T00:59:49.168Z,96.00
2017-09-10T01:02:16.801Z,96.00
2017-09-10T01:04:44.388Z,96.00
2017-09-10T01:07:12.001Z,96.00
2017-09-10T01:09:39.634Z,96.00
2017-09-10T01:12:07.254Z,96.00
2017-09-10T01:14:34.840Z,96.00
2017-09-10T01:17:02.444Z,96.10
2017-09-10T01:19:30.066Z,96.00
2017-09-10T01:21:57.675Z,96.00
2017-09-10T01:24:25.291Z,95.90
2017-09-10T01:26:52.906Z,95.90
2017-09-10T01:29:20.493Z,95.90
2017-09-10T01:31:48.141Z,95.90
2017-09-10T01:34:15.752Z,95.90
2017-09-10T01:36:43.347Z,95.90
2017-09-10T01:39:10.936Z,95.90
2017-09-10T01:41:38.543Z,96.00
2017-09-10T01:44:06.156Z,96.10
2017-09-10T01:46:33.764Z,96.00
2017-09-10T01:49:02.133Z,95.90
2017-09-10T01:51:29.753Z,95.90
2017-09-10T01:53:57.352Z,95.90
2017-09-10T01:56:24.966Z,96.00
2017-09-10T01:58:52.569Z,96.10
2017-09-10T02:01:20.913Z,96.40
2017-09-10T02:03:48.528Z,96.40
2017-09-10T02:06:16.120Z,96.50
2017-09-10T02:08:43.717Z,96.30
2017-09-10T02:11:11.320Z,96.30
2017-09-10T02:13:38.946Z,96.10
2017-09-10T02:16:06.539Z,96.40
2017-09-10T02:18:34.157Z,96.20
2017-09-10T02:21:01.734Z,96.10
2017-09-10T02:23:29.353Z,95.90
2017-09-10T02:25:56.950Z,96.00
2017-09-10T02:28:24.558Z,96.10
2017-09-10T02:30:52.156Z,96.10
2017-09-10T02:33:19.743Z,96.00
2017-09-10T02:35:47.363Z,96.10
2017-09-10T02:38:14.980Z,96.30
2017-09-10T02:40:42.589Z,95.90
2017-09-10T02:43:10.223Z,95.90
2017-09-10T02:45:37.833Z,95.90
2017-09-10T02:48:05.446Z,95.90
2017-09-10T02:50:33.068Z,95.90
2017-09-10T02:53:00.668Z,96.00
2017-09-10T02:55:28.269Z,96.30
2017-09-10T02:57:55.894Z,96.10
2017-09-10T03:00:23.525Z,96.00
2017-09-10T03:02:51.788Z,96.00
2017-09-10T03:05:19.378Z,96.00
2017-09-10T03:07:46.998Z,95.90
2017-09-10T03:10:15.412Z,95.80
2017-09-10T03:12:43.006Z,95.90
2017-09-10T03:15:10.590Z,95.90
2017-09-10T03:17:38.996Z,95.90
2017-09-10T03:20:06.623Z,95.80
2017-09-10T03:22:34.260Z,95.90
2017-09-10T03:25:01.851Z,95.80
2017-09-10T03:27:29.460Z,95.90
2017-09-10T03:29:57.051Z,95.80
2017-09-10T03:32:24.646Z,95.70
2017-09-10T03:34:52.261Z,95.80
2017-09-10T03:37:19.870Z,95.80
2017-09-10T03:39:47.472Z,95.80
2017-09-10T03:42:15.071Z,95.80
2017-09-10T03:44:42.720Z,95.80
2017-09-10T03:47:10.314Z,95.80
2017-09-10T03:49:37.917Z,96.00
2017-09-10T03:52:05.554Z,96.10
2017-09-10T03:54:33.155Z,96.10
2017-09-10T03:57:00.753Z,96.00
2017-09-10T03:59:28.335Z,95.90
2017-09-10T04:01:55.939Z,95.90
2017-09-10T04:04:23.538Z,95.90
2017-09-10T04:06:51.142Z,95.90
2017-09-10T04:09:18.748Z,95.90
2017-09-10T04:11:46.347Z,96.00
2017-09-10T04:14:13.948Z,96.00
2017-09-10T04:16:41.532Z,96.00
2017-09-10T04:19:09.117Z,96.10
2017-09-10T04:21:36.722Z,96.00
2017-09-10T04:24:04.315Z,96.10
2017-09-10T04:26:31.922Z,96.00
2017-09-10T04:28:59.521Z,95.90
2017-09-10T04:31:27.163Z,95.80
2017-09-10T04:33:54.779Z,95.90
2017-09-10T04:36:22.359Z,95.90
2017-09-10T04:38:49.976Z,95.90
2017-09-10T04:41:17.591Z,95.90
2017-09-10T04:43:45.208Z,95.80
2017-09-10T04:46:12.856Z,95.90
2017-09-10T04:48:40.471Z,95.90
2017-09-10T04:51:08.077Z,96.00
2017-09-10T04:53:35.698Z,96.00
2017-09-10T04:56:03.292Z,96.10
2017-09-10T04:58:30.924Z,96.10
2017-09-10T05:00:58.515Z,96.00
2017-09-10T05:03:26.101Z,96.00
2017-09-10T05:05:53.687Z,96.20
2017-09-10T05:08:21.293Z,96.20
2017-09-10T05:10:48.898Z,96.30
2017-09-10T05:13:16.496Z,96.50
2017-09-10T05:15:44.110Z,96.90
2017-09-10T05:18:11.738Z,96.80
2017-09-10T05:20:39.359Z,96.80
2017-09-10T05:23:06.976Z,96.80
2017-09-10T05:25:34.587Z,96.70
2017-09-10T05:28:02.173Z,96.80
2017-09-10T05:30:29.776Z,96.70
2017-09-10T05:32:57.399Z,96.70
2017-09-10T05:35:25.043Z,96.90
2017-09-10T05:37:52.636Z,96.90
2017-09-10T05:40:20.250Z,96.90
2017-09-10T05:42:47.850Z,96.90
2017-09-10T05:45:15.455Z,97.00
2017-09-10T05:47:43.085Z,97.10
2017-09-10T05:50:10.724Z,97.10
2017-09-10T05:52:38.592Z,97.10
2017-09-10T05:55:06.206Z,97.20
2017-09-10T05:57:33.800Z,97.80
2017-09-10T06:00:01.398Z,97.80
2017-09-10T06:02:28.993Z,98.70
2017-09-10T06:04:56.601Z,98.70
2017-09-10T06:07:24.212Z,98.70
2017-09-10T06:09:51.816Z,99.30
2017-09-10T06:12:19.431Z,99.20
2017-09-10T06:14:47.042Z,99.00
2017-09-10T06:17:14.652Z,99.20
2017-09-10T06:19:42.266Z,98.80
2017-09-10T06:22:09.899Z,98.60
2017-09-10T06:24:37.487Z,98.10
2017-09-10T06:27:05.109Z,98.10
2017-09-10T06:29:32.722Z,98.00
2017-09-10T06:32:01.116Z,97.60
2017-09-10T06:34:28.713Z,97.50
2017-09-10T06:36:56.310Z,97.40
2017-09-10T06:39:23.926Z,97.20
2017-09-10T06:41:51.531Z,97.10
2017-09-10T06:44:19.140Z,96.90
2017-09-10T06:46:46.745Z,96.80
2017-09-10T06:49:14.388Z,96.70
2017-09-10T06:51:42.009Z,96.50
2017-09-10T06:54:09.603Z,96.60
2017-09-10T06:56:37.204Z,96.20
2017-09-10T06:59:04.832Z,96.40
2017-09-10T07:01:32.478Z,96.20
2017-09-10T07:04:00.087Z,96.00
2017-09-10T07:06:27.691Z,95.50
2017-09-10T07:08:55.318Z,95.60
2017-09-10T07:11:22.912Z,95.40
2017-09-10T07:13:50.532Z,95.30
2017-09-10T07:16:18.165Z,95.10
2017-09-10T07:18:45.754Z,94.90
2017-09-10T07:21:13.345Z,94.60
2017-09-10T07:23:40.955Z,94.70
2017-09-10T07:26:08.562Z,94.30
2017-09-10T07:28:36.170Z,94.20
2017-09-10T07:31:03.761Z,94.20
2017-09-10T07:33:31.353Z,94.30
2017-09-10T07:38:49.389Z,93.60
2017-09-10T07:41:16.988Z,92.90
2017-09-10T07:43:44.620Z,93.70
2017-09-10T07:46:12.249Z,93.80
2017-09-10T07:48:39.843Z,93.30
2017-09-10T07:51:07.480Z,93.20
2017-09-10T07:53:35.110Z,92.50
2017-09-10T07:56:02.707Z,92.60
2017-09-10T07:58:31.095Z,92.50
2017-09-10T08:00:58.705Z,92.50
2017-09-10T08:03:26.339Z,92.40
2017-09-10T08:05:53.942Z,91.90
2017-09-10T08:08:21.544Z,92.40
2017-09-10T08:10:49.180Z,91.00
2017-09-10T08:13:17.580Z,91.20
2017-09-10T08:15:45.181Z,91.30
2017-09-10T08:18:12.782Z,91.20
2017-09-10T08:20:40.422Z,90.60
2017-09-10T08:23:08.011Z,91.50
2017-09-10T08:25:35.597Z,91.10
2017-09-10T08:28:03.208Z,91.20
2017-09-10T08:30:30.837Z,91.00
2017-09-10T08:32:58.429Z,91.10
2017-09-10T08:35:26.063Z,91.10
2017-09-10T08:37:53.720Z,91.00
2017-09-10T08:40:21.340Z,91.10
2017-09-10T08:42:48.932Z,90.90
2017-09-10T08:45:16.542Z,91.00
2017-09-10T08:47:44.165Z,90.90
2017-09-10T08:50:11.785Z,90.60
2017-09-10T08:52:39.421Z,90.20
2017-09-10T08:55:07.027Z,90.30
2017-09-10T08:57:34.634Z,90.60
2017-09-10T09:00:02.250Z,90.20
2017-09-10T09:02:29.827Z,90.30
2017-09-10T09:04:57.421Z,90.20
2017-09-10T09:07:25.055Z,89.40
2017-09-10T09:09:52.654Z,88.70
2017-09-10T09:12:20.281Z,86.50
2017-09-10T09:14:47.890Z,84.20
2017-09-10T09:17:16.273Z,83.90
2017-09-10T09:19:43.882Z,83.90
2017-09-10T09:22:11.487Z,82.50
2017-09-10T09:24:39.120Z,82.90
2017-09-10T09:27:06.734Z,81.80
2017-09-10T09:29:34.345Z,84.50
2017-09-10T09:32:01.941Z,83.20
2017-09-10T09:34:29.571Z,85.20
2017-09-10T09:36:57.194Z,85.30
2017-09-10T09:39:24.787Z,83.70
2017-09-10T09:41:52.371Z,84.80
2017-09-10T09:44:19.972Z,81.70
2017-09-10T09:46:47.558Z,80.30
2017-09-10T09:49:15.430Z,79.70
2017-09-10T09:51:43.037Z,79.00
2017-09-10T09:54:10.676Z,79.20
2017-09-10T09:56:38.279Z,78.20
2017-09-10T09:59:05.892Z,79.40
2017-09-10T10:01:33.486Z,81.00
2017-09-10T10:04:01.091Z,78.40
2017-09-10T10:06:29.630Z,79.10
2017-09-10T10:08:57.231Z,77.90
2017-09-10T10:11:24.840Z,78.20
2017-09-10T10:13:52.443Z,79.30
2017-09-10T10:16:20.027Z,80.30
2017-09-10T10:18:47.640Z,75.00
2017-09-10T10:21:15.249Z,74.80
2017-09-10T10:23:42.910Z,75.70
2017-09-10T10:26:10.491Z,73.40
2017-09-10T10:28:38.081Z,74.90
2017-09-10T10:31:05.693Z,77.70
2017-09-10T10:33:33.301Z,77.00
2017-09-10T10:36:00.898Z,75.90
2017-09-10T10:38:28.508Z,72.10
2017-09-10T10:40:56.124Z,71.90
2017-09-10T10:43:23.730Z,70.40
2017-09-10T10:45:51.333Z,70.10
2017-09-10T10:48:18.918Z,70.00
2017-09-10T10:50:46.511Z,72.20
2017-09-10T10:53:14.124Z,67.30
2017-09-10T10:55:41.801Z,67.00
2017-09-10T10:58:09.414Z,67.80
2017-09-10T11:00:37.041Z,69.30
2017-09-10T11:03:04.660Z,67.20
2017-09-10T11:05:32.260Z,68.20
2017-09-10T11:07:59.878Z,68.30
2017-09-10T11:10:27.482Z,66.60
2017-09-10T11:12:55.117Z,70.40
2017-09-10T11:15:22.740Z,65.30
2017-09-10T11:17:50.572Z,66.10
2017-09-10T11:20:18.167Z,64.20
2017-09-10T11:22:45.771Z,67.00
2017-09-10T11:25:13.362Z,67.10
2017-09-10T11:27:40.973Z,66.80
2017-09-10T11:30:08.574Z,67.80
2017-09-10T11:32:36.944Z,69.70
2017-09-10T11:35:04.546Z,69.60
2017-09-10T11:37:32.124Z,68.40
2017-09-10T11:39:59.713Z,69.90
2017-09-10T11:42:27.319Z,68.70
2017-09-10T11:44:54.927Z,67.30
2017-09-10T11:47:22.523Z,64.90
2017-09-10T11:49:50.119Z,61.30
2017-09-10T11:52:17.717Z,65.10
2017-09-10T11:54:45.321Z,65.10
2017-09-10T11:57:12.947Z,65.90
2017-09-10T11:59:41.103Z,66.80
2017-09-10T12:02:08.719Z,68.00
2017-09-10T12:04:36.330Z,68.80
2017-09-10T12:07:03.925Z,64.80
2017-09-10T12:09:31.529Z,68.90
2017-09-10T12:11:59.131Z,67.60
2017-09-10T12:14:26.739Z,60.40
2017-09-10T12:16:54.321Z,59.20
2017-09-10T12:19:21.932Z,56.40
2017-09-10T12:21:49.536Z,53.30
2017-09-10T12:24:17.134Z,52.80
2017-09-10T12:26:44.742Z,56.00
2017-09-10T12:29:12.364Z,50.20
2017-09-10T12:31:39.990Z,52.10
2017-09-10T12:34:07.605Z,54.20
2017-09-10T12:36:35.211Z,55.50
2017-09-10T12:39:02.840Z,51.70
2017-09-10T12:41:30.426Z,54.10
2017-09-10T12:43:58.015Z,53.20
2017-09-10T12:46:25.644Z,52.40
2017-09-10T12:48:53.237Z,51.80
2017-09-10T12:51:21.438Z,53.70
2017-09-10T12:53:49.042Z,53.40
2017-09-10T12:56:16.621Z,55.80
2017-09-10T12:58:44.253Z,54.60
2017-09-10T13:01:11.851Z,56.00
2017-09-10T13:03:39.453Z,56.80
2017-09-10T13:06:07.050Z,55.90
2017-09-10T13:08:34.654Z,57.90
2017-09-10T13:11:02.268Z,60.00
2017-09-10T13:13:29.881Z,58.60
2017-09-10T13:15:58.228Z,62.60
2017-09-10T13:18:25.819Z,62.60
2017-09-10T13:20:53.427Z,61.00
2017-09-10T13:23:21.023Z,61.30
2017-09-10T13:25:48.633Z,63.70
2017-09-10T13:28:16.222Z,61.80
2017-09-10T13:30:43.817Z,60.90
2017-09-10T13:33:11.427Z,60.60
2017-09-10T13:35:39.077Z,62.80
2017-09-10T13:38:06.689Z,60.30
2017-09-10T13:40:34.322Z,60.00
2017-09-10T13:43:02.713Z,58.70
2017-09-10T13:45:30.315Z,58.50
2017-09-10T13:47:57.908Z,61.20
2017-09-10T13:50:25.516Z,61.90
2017-09-10T13:52:54.066Z,61.00
2017-09-10T13:55:21.670Z,61.80
2017-09-10T13:57:49.304Z,62.70
2017-09-10T14:00:16.992Z,64.90
2017-09-10T14:02:44.591Z,63.70
2017-09-10T14:05:12.215Z,63.30
2017-09-10T14:07:39.813Z,64.70
2017-09-10T14:10:07.441Z,62.90
2017-09-10T14:12:35.078Z,61.90
2017-09-10T14:15:02.689Z,64.40
2017-09-10T14:17:30.294Z,61.80
2017-09-10T14:19:57.898Z,59.60
2017-09-10T14:22:25.514Z,61.20
2017-09-10T14:24:53.151Z,61.50
2017-09-10T14:27:20.769Z,62.20
2017-09-10T14:29:48.378Z,60.30
2017-09-10T14:32:15.975Z,61.60
2017-09-10T14:34:43.610Z,60.40
2017-09-10T14:37:11.232Z,60.70
2017-09-10T14:39:38.843Z,60.40
2017-09-10T14:42:06.466Z,59.70
2017-09-10T14:44:34.058Z,58.90
2017-09-10T14:47:01.675Z,59.60
2017-09-10T14:49:29.282Z,59.80
2017-09-10T14:51:56.888Z,59.70
2017-09-10T14:54:24.513Z,60.00
2017-09-10T14:56:52.135Z,60.20
2017-09-10T14:59:19.739Z,62.60
2017-09-10T15:01:47.367Z,61.90
2017-09-10T15:04:14.981Z,61.80
2017-09-10T15:06:42.803Z,62.10
2017-09-10T15:09:10.424Z,61.50
2017-09-10T15:11:38.016Z,61.70
2017-09-10T15:14:05.761Z,62.40
2017-09-10T15:16:33.352Z,62.20
2017-09-10T15:19:00.959Z,60.00
2017-09-10T15:21:28.599Z,60.30
2017-09-10T15:23:56.182Z,60.60
2017-09-10T15:26:23.793Z,58.60
2017-09-10T15:28:51.410Z,59.20
2017-09-10T15:31:19.010Z,59.30
2017-09-10T15:33:46.635Z,57.90
2017-09-10T15:36:14.255Z,59.00
2017-09-10T15:38:41.844Z,58.90
2017-09-10T15:41:09.455Z,59.30
2017-09-10T15:43:37.057Z,60.60
2017-09-10T15:46:05.503Z,59.90
2017-09-10T15:48:33.113Z,59.90
2017-09-10T15:51:00.718Z,62.30
2017-09-10T15:53:28.322Z,63.50
2017-09-10T15:55:56.686Z,62.80
2017-09-10T15:58:25.065Z,62.00
2017-09-10T16:00:52.671Z,62.00
2017-09-10T16:03:20.321Z,59.30
2017-09-10T16:05:47.912Z,58.20
2017-09-10T16:08:15.516Z,58.70
2017-09-10T16:10:43.137Z,59.40
2017-09-10T16:13:10.742Z,60.30
2017-09-10T16:15:38.351Z,59.00
2017-09-10T16:18:05.963Z,60.30
2017-09-10T16:20:33.544Z,59.80
2017-09-10T16:23:01.142Z,59.70
2017-09-10T16:25:28.763Z,59.00
2017-09-10T16:27:56.379Z,59.30
2017-09-10T16:30:24.015Z,62.00
2017-09-10T16:32:51.626Z,62.20
2017-09-10T16:35:19.247Z,61.70
2017-09-10T16:37:46.859Z,63.20
2017-09-10T16:40:14.444Z,63.80
2017-09-10T16:42:42.091Z,66.40
2017-09-10T16:45:09.691Z,66.20
2017-09-10T16:47:37.288Z,67.30
2017-09-10T16:50:04.910Z,67.10
2017-09-10T16:52:32.515Z,67.90
2017-09-10T16:55:00.871Z,68.50
2017-09-10T16:57:28.483Z,68.40
2017-09-10T16:59:56.083Z,67.30
2017-09-10T17:02:24.285Z,67.40
2017-09-10T17:04:51.932Z,66.70
2017-09-10T17:07:19.554Z,67.30
2017-09-10T17:09:47.146Z,66.50
2017-09-10T17:12:14.761Z,67.70
2017-09-10T17:14:42.380Z,66.10
2017-09-10T17:17:09.984Z,67.70
2017-09-10T17:19:37.631Z,66.70
2017-09-10T17:22:06.118Z,66.60
2017-09-10T17:24:33.759Z,66.00
2017-09-10T17:27:01.426Z,68.50
2017-09-10T17:29:29.058Z,66.80
2017-09-10T17:31:56.716Z,68.60
2017-09-10T17:34:24.354Z,69.20
2017-09-10T17:36:51.951Z,67.70
2017-09-10T17:39:19.588Z,68.80
2017-09-10T17:41:47.217Z,67.50
2017-09-10T17:44:14.847Z,68.90
2017-09-10T17:46:42.494Z,69.80
2017-09-10T17:49:10.184Z,69.20
2017-09-10T17:51:37.830Z,69.50
2017-09-10T17:54:05.470Z,69.70
2017-09-10T17:56:33.051Z,69.00
2017-09-10T17:59:00.684Z,70.50
2017-09-10T18:01:28.284Z,69.30
2017-09-10T18:03:55.877Z,70.70
2017-09-10T18:06:23.548Z,70.90
2017-09-10T18:08:51.163Z,70.40
2017-09-10T18:11:18.799Z,71.00
2017-09-10T18:13:46.411Z,72.10
2017-09-10T18:16:14.234Z,72.30
2017-09-10T18:18:41.901Z,71.80
2017-09-10T18:21:10.305Z,73.10
2017-09-10T18:23:37.917Z,73.10
2017-09-10T18:26:05.636Z,73.10
2017-09-10T18:28:33.261Z,73.20
2017-09-10T18:31:01.001Z,73.30
2017-09-10T18:33:28.747Z,74.00
2017-09-10T18:35:56.431Z,74.70
2017-09-10T18:38:24.977Z,75.80
2017-09-10T18:40:52.682Z,75.80
2017-09-10T18:43:20.500Z,75.20
2017-09-10T18:45:48.419Z,75.70
2017-09-10T18:48:16.182Z,75.80
2017-09-10T18:50:43.840Z,75.20
2017-09-10T18:53:11.528Z,75.50
2017-09-10T18:55:39.200Z,75.10
2017-09-10T18:58:07.764Z,74.80
2017-09-10T19:00:35.502Z,74.80
2017-09-10T19:03:04.060Z,74.30
2017-09-10T19:05:31.738Z,74.80
2017-09-10T19:07:59.789Z,73.80
2017-09-10T19:10:27.565Z,74.10
2017-09-10T19:12:55.323Z,74.80
2017-09-10T19:15:23.200Z,74.00
2017-09-10T19:17:50.933Z,72.60
2017-09-10T19:20:18.685Z,73.10
2017-09-10T19:22:46.566Z,73.10
2017-09-10T19:25:14.434Z,72.80
2017-09-10T19:27:42.301Z,72.20
2017-09-10T19:30:10.054Z,72.80
2017-09-10T19:32:37.836Z,70.70
2017-09-10T19:35:05.606Z,70.10
2017-09-10T19:37:33.338Z,69.60
2017-09-10T19:40:01.013Z,69.30
2017-09-10T19:42:28.802Z,69.00
2017-09-10T19:44:56.450Z,68.60
2017-09-10T19:47:27.456Z,68.90
2017-09-10T19:49:55.247Z,70.60
2017-09-10T19:52:22.953Z,68.90
2017-09-10T19:54:50.672Z,70.20
2017-09-10T19:57:18.336Z,70.00
2017-09-10T19:59:45.987Z,70.60
2017-09-10T20:02:13.988Z,70.80
2017-09-10T20:04:41.963Z,69.80
2017-09-10T20:07:19.528Z,71.30
2017-09-10T20:09:47.284Z,70.90
2017-09-10T20:12:15.267Z,71.50
2017-09-10T20:14:42.989Z,71.10
2017-09-10T20:17:10.733Z,72.10
2017-09-10T20:19:38.478Z,72.30
2017-09-10T20:22:18.142Z,72.20
2017-09-10T20:24:52.533Z,72.60
2017-09-10T20:27:20.280Z,71.50
2017-09-10T20:29:48.869Z,71.90
2017-09-10T20:32:19.643Z,72.10
2017-09-10T20:34:47.338Z,72.20
2017-09-10T20:37:15.211Z,72.20
2017-09-10T20:39:43.284Z,72.10
2017-09-10T20:42:11.834Z,71.50
2017-09-10T20:44:56.809Z,72.30
2017-09-10T20:47:24.518Z,72.30
2017-09-10T20:49:52.307Z,71.80
2017-09-10T20:52:20.042Z,71.40
2017-09-10T20:54:47.689Z,72.50
2017-09-10T20:57:16.338Z,72.50
2017-09-10T20:59:44.064Z,71.70
2017-09-10T21:02:14.006Z,71.40
2017-09-10T21:04:41.753Z,72.20
2017-09-10T21:07:09.434Z,72.60
2017-09-10T21:09:37.139Z,72.90
2017-09-10T21:12:05.020Z,73.70
2017-09-10T21:14:33.449Z,72.70
2017-09-10T21:17:01.645Z,73.20
2017-09-10T21:19:29.313Z,72.70
2017-09-10T21:21:57.437Z,73.40
2017-09-10T21:24:25.094Z,72.80
2017-09-10T21:26:52.758Z,73.40
2017-09-10T21:29:20.494Z,73.30
2017-09-10T21:31:48.314Z,73.40
2017-09-10T21:34:16.040Z,73.50
2017-09-10T21:36:43.710Z,73.80
2017-09-10T21:39:11.495Z,74.00
2017-09-10T21:41:39.192Z,73.50
2017-09-10T21:44:06.924Z,73.30
2017-09-10T21:46:53.007Z,74.20
2017-09-10T21:49:20.693Z,74.00
2017-09-10T21:51:48.367Z,74.20
2017-09-10T21:54:16.023Z,74.70
2017-09-10T21:56:44.416Z,75.40
2017-09-10T21:59:12.077Z,74.60
2017-09-10T22:04:36.805Z,74.60
2017-09-10T22:07:04.500Z,74.50
2017-09-10T22:09:33.275Z,74.40
2017-09-10T22:12:01.061Z,74.00
2017-09-10T22:14:28.862Z,74.50
2017-09-10T22:16:56.561Z,73.90
2017-09-10T22:19:24.322Z,73.80
2017-09-10T22:21:51.960Z,75.00
2017-09-10T22:24:19.671Z,74.30
2017-09-10T22:26:47.359Z,74.60
2017-09-10T22:29:15.059Z,74.60
2017-09-10T22:31:42.741Z,75.50
2017-09-10T22:34:10.607Z,75.50
2017-09-10T22:36:39.077Z,74.80
2017-09-10T22:39:06.751Z,76.40
2017-09-10T22:41:34.459Z,79.00
2017-09-10T22:44:02.177Z,80.40
2017-09-10T22:46:29.845Z,79.80
2017-09-10T22:48:58.522Z,82.60
2017-09-10T22:51:27.311Z,82.50
2017-09-10T22:53:54.977Z,83.10
2017-09-10T22:56:22.637Z,83.60
2017-09-10T22:58:54.318Z,84.00
2017-09-10T23:02:32.282Z,84.40
2017-09-10T23:05:00.031Z,84.10
2017-09-10T23:07:27.686Z,83.50
2017-09-10T23:09:55.388Z,83.90
2017-09-10T23:12:23.204Z,83.90
2017-09-10T23:14:50.876Z,83.50
2017-09-10T23:17:18.664Z,84.10
2017-09-10T23:19:46.432Z,83.20
2017-09-10T23:22:16.938Z,82.00
2017-09-10T23:24:44.696Z,83.80
2017-09-10T23:27:12.410Z,84.20
2017-09-10T23:29:40.167Z,82.90
2017-09-10T23:32:07.933Z,83.20
2017-09-10T23:34:35.672Z,83.00
2017-09-10T23:37:03.384Z,83.40
2017-09-10T23:39:31.134Z,83.30
2017-09-10T23:41:59.206Z,82.30
2017-09-10T23:44:26.905Z,83.30
2017-09-10T23:46:59.612Z,82.30
2017-09-10T23:49:28.110Z,81.80
2017-09-10T23:51:55.754Z,81.80
2017-09-10T23:54:23.484Z,83.10
2017-09-10T23:56:51.145Z,82.90
2017-09-10T23:59:19.728Z,82.80
